Flight Track Log - Related Links

Times and Time Zones

All times are in EDT time to prevent confusion due to time zone crossing. See the UAL5007 flight status page for this flight to view local times or setup timezone preferences in your user account.

Time Position Orientation Groundspeed Altitude Reporting Facility
EDT Latitude Longitude Course Direction KTS MPH feet Rate Location/Type
Sun 08:25:00 AM 40.9189 -73.9044 41° Northeast  Level Estimated
Sun 08:26:00 AM 40.9641 -73.8513 42° Northeast  Level Estimated
Sun 08:27:00 AM 41.0093 -73.7981 42° Northeast  Level Estimated
Sun 08:28:00 AM 41.0545 -73.7449 42° Northeast  Level Estimated
Sun 08:29:00 AM 41.0997 -73.6916 42° Northeast  Level Estimated
Sun 08:30:00 AM 41.1448 -73.6383 42° Northeast  Level Estimated
Sun 08:31:00 AM 41.1899 -73.5848 42° Northeast  Level Estimated
Sun 08:32:00 AM 41.2349 -73.5313 42° Northeast  Level Estimated
Sun 08:33:00 AM 41.2800 -73.4777 42° Northeast  Level Estimated
Sun 08:34:00 AM 41.3250 -73.4240 42° Northeast  Level Estimated
Sun 08:35:00 AM 41.3700 -73.3703 42° Northeast  Level Estimated
Sun 08:36:00 AM 41.4150 -73.3165 42° Northeast  Level Estimated
Sun 08:37:00 AM 41.4599 -73.2626 42° Northeast  Level Estimated
Sun 08:38:00 AM 41.5048 -73.2086 42° Northeast  Level Estimated
Sun 08:39:00 AM 41.5497 -73.1546 42° Northeast  Level Estimated
Sun 08:40:00 AM 41.5946 -73.1005 42° Northeast  Level Estimated
Sun 08:41:00 AM 41.6394 -73.0463 42° Northeast  Level Estimated
Sun 08:42:00 AM 41.6843 -72.9920 42° Northeast  Level Estimated
Sun 08:43:00 AM 41.7290 -72.9377 42° Northeast  Level Estimated
Sun 08:44:00 AM 41.7738 -72.8833 42° Northeast  Level Estimated
Sun 08:45:00 AM 41.8186 -72.8288 42° Northeast  Level Estimated
Sun 08:46:00 AM 41.8633 -72.7742 42° Northeast  Level Estimated
Sun 08:47:00 AM 41.9080 -72.7196 42° Northeast  Level Estimated
Sun 08:48:00 AM 41.9526 -72.6648 42° Northeast  Level Estimated
Sun 08:49:00 AM 41.9973 -72.6100 42° Northeast  Level Estimated
Sun 08:50:00 AM 42.0419 -72.5552 42° Northeast  Level Estimated
Sun 08:51:00 AM 42.0865 -72.5002 42° Northeast  Level Estimated
Sun 08:52:00 AM 42.1310 -72.4452 42° Northeast  Level Estimated
Sun 08:53:00 AM 42.1756 -72.3901 43° Northeast  Level Estimated
Sun 08:54:00 AM 42.2201 -72.3349 43° Northeast  Level Estimated
Sun 08:55:00 AM 42.2645 -72.2796 43° Northeast  Level Estimated
Sun 08:56:00 AM 42.3090 -72.2243 43° Northeast  Level Estimated
Sun 08:57:00 AM 42.3534 -72.1689 43° Northeast  Level Estimated
Sun 08:58:00 AM 42.3978 -72.1134 43° Northeast  Level Estimated
Sun 08:59:00 AM 42.4422 -72.0578 43° Northeast  Level Estimated
Sun 09:00:00 AM 42.4865 -72.0022 43° Northeast  Level Estimated
Sun 09:01:00 AM 42.5309 -71.9464 43° Northeast  Level Estimated
Sun 09:02:00 AM 42.5752 -71.8906 43° Northeast  Level Estimated
Sun 09:03:00 AM 42.6194 -71.8347 43° Northeast  Level Estimated
Sun 09:04:00 AM 42.6637 -71.7788 43° Northeast  Level Estimated
Sun 09:05:00 AM 42.7079 -71.7227 43° Northeast  Level Estimated
Sun 09:06:00 AM 42.7520 -71.6666 43° Northeast  Level Estimated
Sun 09:07:00 AM 42.7962 -71.6104 43° Northeast  Level Estimated
Sun 09:08:00 AM 42.8403 -71.5541 43° Northeast  Level Estimated
Sun 09:09:00 AM 42.8844 -71.4977 43° Northeast  Level Estimated
Sun 09:10:00 AM 42.9285 -71.4413 43° Northeast  Level Estimated
Sun 09:11:00 AM 42.9328 -71.4358 43° Northeast  Level Estimated
Sun 09:12:00 AM 42.9328 -71.4358 North  Level Estimated
Sun 09:13:00 AM 42.9328 -71.4358 North  Level Estimated
Sun 09:14:00 AM 42.9328 -71.4358 North  Level Estimated
Sun 09:15:00 AM 42.9328 -71.4358 North  Level Estimated
Sun 09:16:00 AM 42.9328 -71.4358 North  Level Estimated
Sun 09:17:00 AM 42.9328 -71.4358 North  Level Estimated
Sun 09:18:00 AM 42.9328 -71.4358 North  Level Estimated
Sun 09:19:00 AM 42.9328 -71.4358 North  Level Estimated
Sun 09:20:00 AM 42.9328 -71.4358 North  Level Estimated
Sun 09:21:00 AM 42.9328 -71.4358 North  Level Estimated
Sun 09:22:00 AM 42.9328 -71.4358 North  Level Estimated
Sun 09:23:00 AM 42.9328 -71.4358 North  Level Estimated
Sun 09:24:00 AM 42.9328 -71.4358 North  Level Estimated
Sun 09:25:00 AM 42.9328 -71.4358 North  Level Estimated

Login

Don't have an account? Register now (free) for customized features, flight alerts, and more!